sensor_id;sensor_type;location;lat;lon;timestamp;temperature;humidity
16134;DHT22;8172;45.018;5.972;2023-02-01T00:04:31;-2.00;76.40
16134;DHT22;8172;45.018;5.972;2023-02-01T00:09:38;-2.00;76.50
16134;DHT22;8172;45.018;5.972;2023-02-01T00:14:46;-2.00;76.50
16134;DHT22;8172;45.018;5.972;2023-02-01T00:19:54;-1.90;76.60
16134;DHT22;8172;45.018;5.972;2023-02-01T00:25:01;-1.90;76.60
16134;DHT22;8172;45.018;5.972;2023-02-01T00:30:10;-1.80;76.70
16134;DHT22;8172;45.018;5.972;2023-02-01T00:35:17;-1.80;76.80
16134;DHT22;8172;45.018;5.972;2023-02-01T00:40:24;-1.70;77.00
16134;DHT22;8172;45.018;5.972;2023-02-01T00:45:31;-1.70;76.90
16134;DHT22;8172;45.018;5.972;2023-02-01T00:50:42;-1.70;77.00
16134;DHT22;8172;45.018;5.972;2023-02-01T00:55:48;-1.70;77.00
16134;DHT22;8172;45.018;5.972;2023-02-01T01:06:09;-1.60;77.10
16134;DHT22;8172;45.018;5.972;2023-02-01T01:11:18;-1.60;77.10
16134;DHT22;8172;45.018;5.972;2023-02-01T01:16:27;-1.60;77.10
16134;DHT22;8172;45.018;5.972;2023-02-01T01:21:34;-1.60;77.20
16134;DHT22;8172;45.018;5.972;2023-02-01T01:26:42;-1.60;77.20
16134;DHT22;8172;45.018;5.972;2023-02-01T01:31:49;-1.50;77.20
16134;DHT22;8172;45.018;5.972;2023-02-01T01:36:56;-1.50;77.30
16134;DHT22;8172;45.018;5.972;2023-02-01T01:42:03;-1.50;77.30
16134;DHT22;8172;45.018;5.972;2023-02-01T01:47:10;-1.50;77.40
16134;DHT22;8172;45.018;5.972;2023-02-01T01:52:19;-1.60;77.40
16134;DHT22;8172;45.018;5.972;2023-02-01T01:57:32;-1.60;77.40
16134;DHT22;8172;45.018;5.972;2023-02-01T02:02:37;-1.60;77.40
16134;DHT22;8172;45.018;5.972;2023-02-01T02:07:47;-1.50;77.40
16134;DHT22;8172;45.018;5.972;2023-02-01T02:12:55;-1.60;77.40
16134;DHT22;8172;45.018;5.972;2023-02-01T02:18:05;-1.60;77.50
16134;DHT22;8172;45.018;5.972;2023-02-01T02:23:17;-1.60;77.50
16134;DHT22;8172;45.018;5.972;2023-02-01T02:43:51;-1.60;77.80
16134;DHT22;8172;45.018;5.972;2023-02-01T02:54:17;-1.60;78.00
16134;DHT22;8172;45.018;5.972;2023-02-01T02:59:22;-1.70;78.20
16134;DHT22;8172;45.018;5.972;2023-02-01T03:04:32;-1.70;78.20
16134;DHT22;8172;45.018;5.972;2023-02-01T03:09:40;-1.70;78.20
16134;DHT22;8172;45.018;5.972;2023-02-01T03:14:51;-1.70;78.20
16134;DHT22;8172;45.018;5.972;2023-02-01T03:20:00;-1.70;78.40
16134;DHT22;8172;45.018;5.972;2023-02-01T03:25:10;-1.70;78.20
16134;DHT22;8172;45.018;5.972;2023-02-01T03:30:20;-1.80;78.20
16134;DHT22;8172;45.018;5.972;2023-02-01T03:40:38;-1.70;78.10
16134;DHT22;8172;45.018;5.972;2023-02-01T03:45:49;-1.70;78.10
16134;DHT22;8172;45.018;5.972;2023-02-01T03:50:59;-1.70;78.10
16134;DHT22;8172;45.018;5.972;2023-02-01T03:56:07;-1.60;78.00
16134;DHT22;8172;45.018;5.972;2023-02-01T04:01:14;-1.60;78.00
16134;DHT22;8172;45.018;5.972;2023-02-01T04:06:22;-1.60;78.00
16134;DHT22;8172;45.018;5.972;2023-02-01T04:11:31;-1.60;78.00
16134;DHT22;8172;45.018;5.972;2023-02-01T04:16:38;-1.60;78.00
16134;DHT22;8172;45.018;5.972;2023-02-01T04:21:45;-1.60;78.00
16134;DHT22;8172;45.018;5.972;2023-02-01T04:26:52;-1.60;78.00
16134;DHT22;8172;45.018;5.972;2023-02-01T04:31:59;-1.60;78.10
16134;DHT22;8172;45.018;5.972;2023-02-01T04:37:06;-1.60;78.00
16134;DHT22;8172;45.018;5.972;2023-02-01T04:42:13;-1.60;78.10
16134;DHT22;8172;45.018;5.972;2023-02-01T04:47:21;-1.60;78.10
16134;DHT22;8172;45.018;5.972;2023-02-01T04:52:28;-1.60;78.10
16134;DHT22;8172;45.018;5.972;2023-02-01T04:57:35;-1.60;78.10
16134;DHT22;8172;45.018;5.972;2023-02-01T05:02:44;-1.60;78.00
16134;DHT22;8172;45.018;5.972;2023-02-01T05:07:51;-1.60;78.00
16134;DHT22;8172;45.018;5.972;2023-02-01T05:12:58;-1.60;78.10
16134;DHT22;8172;45.018;5.972;2023-02-01T05:18:06;-1.60;78.10
16134;DHT22;8172;45.018;5.972;2023-02-01T05:23:13;-1.60;78.10
16134;DHT22;8172;45.018;5.972;2023-02-01T05:28:21;-1.60;78.10
16134;DHT22;8172;45.018;5.972;2023-02-01T05:33:27;-1.60;78.10
16134;DHT22;8172;45.018;5.972;2023-02-01T05:38:35;-1.60;78.00
16134;DHT22;8172;45.018;5.972;2023-02-01T05:43:42;-1.60;78.00
16134;DHT22;8172;45.018;5.972;2023-02-01T05:48:49;-1.60;78.00
16134;DHT22;8172;45.018;5.972;2023-02-01T05:53:56;-1.60;78.00
16134;DHT22;8172;45.018;5.972;2023-02-01T05:59:03;-1.70;78.00
16134;DHT22;8172;45.018;5.972;2023-02-01T06:04:10;-1.70;78.00
16134;DHT22;8172;45.018;5.972;2023-02-01T06:09:17;-1.70;78.00
16134;DHT22;8172;45.018;5.972;2023-02-01T06:14:24;-1.70;78.10
16134;DHT22;8172;45.018;5.972;2023-02-01T06:19:32;-1.70;78.00
16134;DHT22;8172;45.018;5.972;2023-02-01T06:24:39;-1.80;78.10
16134;DHT22;8172;45.018;5.972;2023-02-01T06:29:46;-1.80;78.10
16134;DHT22;8172;45.018;5.972;2023-02-01T06:34:53;-1.80;78.20
16134;DHT22;8172;45.018;5.972;2023-02-01T06:40:01;-1.80;78.10
16134;DHT22;8172;45.018;5.972;2023-02-01T06:45:08;-1.80;78.20
16134;DHT22;8172;45.018;5.972;2023-02-01T06:50:16;-1.80;78.30
16134;DHT22;8172;45.018;5.972;2023-02-01T06:55:23;-1.90;78.30
16134;DHT22;8172;45.018;5.972;2023-02-01T07:00:30;-1.90;78.30
16134;DHT22;8172;45.018;5.972;2023-02-01T07:05:37;-2.00;78.40
16134;DHT22;8172;45.018;5.972;2023-02-01T07:10:44;-2.00;78.50
16134;DHT22;8172;45.018;5.972;2023-02-01T07:15:51;-2.00;78.50
16134;DHT22;8172;45.018;5.972;2023-02-01T07:20:59;-2.00;78.50
16134;DHT22;8172;45.018;5.972;2023-02-01T07:26:07;-2.00;78.60
16134;DHT22;8172;45.018;5.972;2023-02-01T07:31:18;-2.10;78.80
16134;DHT22;8172;45.018;5.972;2023-02-01T07:36:27;-2.20;78.80
16134;DHT22;8172;45.018;5.972;2023-02-01T07:41:34;-2.20;79.00
16134;DHT22;8172;45.018;5.972;2023-02-01T07:46:41;-2.30;79.20
16134;DHT22;8172;45.018;5.972;2023-02-01T07:51:50;-2.20;79.10
16134;DHT22;8172;45.018;5.972;2023-02-01T07:56:57;-2.20;79.20
16134;DHT22;8172;45.018;5.972;2023-02-01T08:02:04;-2.20;79.20
16134;DHT22;8172;45.018;5.972;2023-02-01T08:07:11;-2.10;79.20
16134;DHT22;8172;45.018;5.972;2023-02-01T08:12:19;-2.10;79.10
16134;DHT22;8172;45.018;5.972;2023-02-01T08:17:25;-2.10;78.90
16134;DHT22;8172;45.018;5.972;2023-02-01T08:22:34;-2.10;78.90
16134;DHT22;8172;45.018;5.972;2023-02-01T08:27:43;-2.10;78.90
16134;DHT22;8172;45.018;5.972;2023-02-01T08:32:50;-2.20;79.10
16134;DHT22;8172;45.018;5.972;2023-02-01T08:37:57;-2.10;79.10
16134;DHT22;8172;45.018;5.972;2023-02-01T08:43:03;-2.10;79.10
16134;DHT22;8172;45.018;5.972;2023-02-01T08:48:10;-2.00;79.10
16134;DHT22;8172;45.018;5.972;2023-02-01T08:53:17;-2.00;79.00
16134;DHT22;8172;45.018;5.972;2023-02-01T08:58:24;-2.00;79.10
16134;DHT22;8172;45.018;5.972;2023-02-01T09:03:31;-1.90;79.10
16134;DHT22;8172;45.018;5.972;2023-02-01T09:08:42;-1.80;79.10
16134;DHT22;8172;45.018;5.972;2023-02-01T09:13:48;-1.80;79.10
16134;DHT22;8172;45.018;5.972;2023-02-01T09:18:55;-1.70;79.10
16134;DHT22;8172;45.018;5.972;2023-02-01T09:24:04;-1.70;79.20
16134;DHT22;8172;45.018;5.972;2023-02-01T09:29:12;-1.70;79.10
16134;DHT22;8172;45.018;5.972;2023-02-01T09:34:20;-1.60;79.20
16134;DHT22;8172;45.018;5.972;2023-02-01T09:39:28;-1.80;79.20
16134;DHT22;8172;45.018;5.972;2023-02-01T09:54:58;-1.70;79.70
16134;DHT22;8172;45.018;5.972;2023-02-01T10:00:12;-1.60;79.70
16134;DHT22;8172;45.018;5.972;2023-02-01T10:05:20;-1.50;79.70
16134;DHT22;8172;45.018;5.972;2023-02-01T10:10:34;-1.40;79.70
16134;DHT22;8172;45.018;5.972;2023-02-01T10:20:48;-1.40;79.60
16134;DHT22;8172;45.018;5.972;2023-02-01T10:25:55;-1.50;79.70
16134;DHT22;8172;45.018;5.972;2023-02-01T10:31:04;-1.40;79.90
16134;DHT22;8172;45.018;5.972;2023-02-01T10:36:15;-1.30;79.70
16134;DHT22;8172;45.018;5.972;2023-02-01T10:41:21;-1.20;80.00
16134;DHT22;8172;45.018;5.972;2023-02-01T10:46:31;-1.10;79.80
16134;DHT22;8172;45.018;5.972;2023-02-01T10:51:42;-0.90;79.60
16134;DHT22;8172;45.018;5.972;2023-02-01T10:56:47;-0.80;79.70
16134;DHT22;8172;45.018;5.972;2023-02-01T11:01:59;-0.70;79.60
16134;DHT22;8172;45.018;5.972;2023-02-01T11:12:33;-0.40;79.40
16134;DHT22;8172;45.018;5.972;2023-02-01T11:17:26;-0.20;79.30
16134;DHT22;8172;45.018;5.972;2023-02-01T11:22:34;0.00;79.00
16134;DHT22;8172;45.018;5.972;2023-02-01T11:27:42;0.10;78.70
16134;DHT22;8172;45.018;5.972;2023-02-01T11:32:51;0.20;78.60
16134;DHT22;8172;45.018;5.972;2023-02-01T11:38:00;0.30;78.50
16134;DHT22;8172;45.018;5.972;2023-02-01T11:43:15;0.40;78.20
16134;DHT22;8172;45.018;5.972;2023-02-01T11:48:18;0.50;77.90
16134;DHT22;8172;45.018;5.972;2023-02-01T11:58:48;0.60;77.90
16134;DHT22;8172;45.018;5.972;2023-02-01T12:09:01;0.80;77.60
16134;DHT22;8172;45.018;5.972;2023-02-01T12:14:14;0.90;77.40
16134;DHT22;8172;45.018;5.972;2023-02-01T12:45:10;1.60;76.80
16134;DHT22;8172;45.018;5.972;2023-02-01T12:55:24;1.80;76.60
16134;DHT22;8172;45.018;5.972;2023-02-01T13:00:35;1.80;76.40
16134;DHT22;8172;45.018;5.972;2023-02-01T13:10:58;2.00;76.40
16134;DHT22;8172;45.018;5.972;2023-02-01T13:26:21;2.30;75.80
16134;DHT22;8172;45.018;5.972;2023-02-01T13:36:41;2.40;75.70
16134;DHT22;8172;45.018;5.972;2023-02-01T13:47:00;2.60;75.60
16134;DHT22;8172;45.018;5.972;2023-02-01T13:52:21;2.70;75.50
16134;DHT22;8172;45.018;5.972;2023-02-01T14:12:49;2.80;74.80
16134;DHT22;8172;45.018;5.972;2023-02-01T14:17:56;2.80;74.80
16134;DHT22;8172;45.018;5.972;2023-02-01T14:23:04;2.90;74.70
16134;DHT22;8172;45.018;5.972;2023-02-01T14:28:21;2.90;74.30
16134;DHT22;8172;45.018;5.972;2023-02-01T14:33:25;2.90;73.70
16134;DHT22;8172;45.018;5.972;2023-02-01T14:38:34;2.80;73.00
16134;DHT22;8172;45.018;5.972;2023-02-01T14:48:52;2.20;72.80
16134;DHT22;8172;45.018;5.972;2023-02-01T14:54:00;2.00;73.10
16134;DHT22;8172;45.018;5.972;2023-02-01T14:59:13;1.70;73.20
16134;DHT22;8172;45.018;5.972;2023-02-01T15:04:19;1.50;73.30
16134;DHT22;8172;45.018;5.972;2023-02-01T15:09:28;1.30;73.50
16134;DHT22;8172;45.018;5.972;2023-02-01T15:24:57;0.90;74.10
16134;DHT22;8172;45.018;5.972;2023-02-01T15:30:07;0.80;74.10
16134;DHT22;8172;45.018;5.972;2023-02-01T15:40:24;0.60;74.20
16134;DHT22;8172;45.018;5.972;2023-02-01T15:45:33;0.50;74.20
16134;DHT22;8172;45.018;5.972;2023-02-01T15:50:41;0.40;74.10
16134;DHT22;8172;45.018;5.972;2023-02-01T15:55:51;0.30;74.30
16134;DHT22;8172;45.018;5.972;2023-02-01T16:01:00;0.30;74.50
16134;DHT22;8172;45.018;5.972;2023-02-01T16:06:26;0.20;74.70
16134;DHT22;8172;45.018;5.972;2023-02-01T16:16:30;0.10;75.00
16134;DHT22;8172;45.018;5.972;2023-02-01T16:21:37;0.10;75.20
16134;DHT22;8172;45.018;5.972;2023-02-01T16:26:48;0.10;74.90
16134;DHT22;8172;45.018;5.972;2023-02-01T16:31:55;0.00;74.80
16134;DHT22;8172;45.018;5.972;2023-02-01T16:37:03;0.00;74.80
16134;DHT22;8172;45.018;5.972;2023-02-01T16:42:12;-0.10;74.80
16134;DHT22;8172;45.018;5.972;2023-02-01T16:47:21;-0.10;75.00
16134;DHT22;8172;45.018;5.972;2023-02-01T16:52:30;-0.20;75.00
16134;DHT22;8172;45.018;5.972;2023-02-01T16:57:37;-0.20;74.90
16134;DHT22;8172;45.018;5.972;2023-02-01T17:02:44;-0.30;75.10
16134;DHT22;8172;45.018;5.972;2023-02-01T17:07:51;-0.30;75.10
16134;DHT22;8172;45.018;5.972;2023-02-01T17:12:58;-0.30;75.20
16134;DHT22;8172;45.018;5.972;2023-02-01T17:18:07;-0.30;75.00
16134;DHT22;8172;45.018;5.972;2023-02-01T17:23:15;-0.40;75.00
16134;DHT22;8172;45.018;5.972;2023-02-01T17:28:22;-0.40;75.10
16134;DHT22;8172;45.018;5.972;2023-02-01T17:33:33;-0.50;75.40
16134;DHT22;8172;45.018;5.972;2023-02-01T17:38:41;-0.50;75.50
16134;DHT22;8172;45.018;5.972;2023-02-01T17:43:52;-0.50;75.30
16134;DHT22;8172;45.018;5.972;2023-02-01T17:48:59;-0.50;75.30
16134;DHT22;8172;45.018;5.972;2023-02-01T17:54:11;-0.60;75.60
16134;DHT22;8172;45.018;5.972;2023-02-01T17:59:18;-0.60;75.60
16134;DHT22;8172;45.018;5.972;2023-02-01T18:04:25;-0.60;75.40
16134;DHT22;8172;45.018;5.972;2023-02-01T18:09:33;-0.60;75.70
16134;DHT22;8172;45.018;5.972;2023-02-01T18:14:40;-0.60;75.80
16134;DHT22;8172;45.018;5.972;2023-02-01T18:19:47;-0.70;75.60
16134;DHT22;8172;45.018;5.972;2023-02-01T18:24:54;-0.70;75.60
16134;DHT22;8172;45.018;5.972;2023-02-01T18:30:01;-0.70;75.60
16134;DHT22;8172;45.018;5.972;2023-02-01T18:35:27;-0.70;75.80
16134;DHT22;8172;45.018;5.972;2023-02-01T18:40:20;-0.70;75.80
16134;DHT22;8172;45.018;5.972;2023-02-01T18:45:30;-0.80;76.00
16134;DHT22;8172;45.018;5.972;2023-02-01T18:50:40;-0.80;76.20
16134;DHT22;8172;45.018;5.972;2023-02-01T18:55:47;-0.80;76.50
16134;DHT22;8172;45.018;5.972;2023-02-01T19:00:56;-0.70;76.40
16134;DHT22;8172;45.018;5.972;2023-02-01T19:06:03;-0.70;76.50
16134;DHT22;8172;45.018;5.972;2023-02-01T19:11:10;-0.70;76.50
16134;DHT22;8172;45.018;5.972;2023-02-01T19:16:17;-0.70;76.60
16134;DHT22;8172;45.018;5.972;2023-02-01T19:21:24;-0.70;76.80
16134;DHT22;8172;45.018;5.972;2023-02-01T19:26:31;-0.70;77.10
16134;DHT22;8172;45.018;5.972;2023-02-01T19:31:38;-0.70;78.20
16134;DHT22;8172;45.018;5.972;2023-02-01T19:36:46;-0.70;78.00
16134;DHT22;8172;45.018;5.972;2023-02-01T19:41:54;-0.70;78.50
16134;DHT22;8172;45.018;5.972;2023-02-01T19:47:03;-0.60;78.90
16134;DHT22;8172;45.018;5.972;2023-02-01T19:52:10;-0.60;78.80
16134;DHT22;8172;45.018;5.972;2023-02-01T19:57:18;-0.50;78.90
16134;DHT22;8172;45.018;5.972;2023-02-01T20:02:25;-0.50;78.70
16134;DHT22;8172;45.018;5.972;2023-02-01T20:07:33;-0.50;78.90
16134;DHT22;8172;45.018;5.972;2023-02-01T20:12:40;-0.40;79.00
16134;DHT22;8172;45.018;5.972;2023-02-01T20:17:47;-0.50;79.20
16134;DHT22;8172;45.018;5.972;2023-02-01T20:22:58;-0.50;79.50
16134;DHT22;8172;45.018;5.972;2023-02-01T20:28:05;-0.50;79.80
16134;DHT22;8172;45.018;5.972;2023-02-01T20:33:12;-0.50;79.70
16134;DHT22;8172;45.018;5.972;2023-02-01T20:38:20;-0.60;80.20
16134;DHT22;8172;45.018;5.972;2023-02-01T20:43:28;-0.60;80.10
16134;DHT22;8172;45.018;5.972;2023-02-01T20:48:35;-0.60;80.20
16134;DHT22;8172;45.018;5.972;2023-02-01T20:53:43;-0.60;80.30
16134;DHT22;8172;45.018;5.972;2023-02-01T20:58:51;-0.60;80.90
16134;DHT22;8172;45.018;5.972;2023-02-01T21:03:58;-0.60;81.10
16134;DHT22;8172;45.018;5.972;2023-02-01T21:09:06;-0.70;80.90
16134;DHT22;8172;45.018;5.972;2023-02-01T21:14:13;-0.70;81.00
16134;DHT22;8172;45.018;5.972;2023-02-01T21:19:20;-0.70;80.90
16134;DHT22;8172;45.018;5.972;2023-02-01T21:24:30;-0.60;80.80
16134;DHT22;8172;45.018;5.972;2023-02-01T21:29:37;-0.50;80.70
16134;DHT22;8172;45.018;5.972;2023-02-01T21:34:45;-0.50;80.50
16134;DHT22;8172;45.018;5.972;2023-02-01T21:39:52;-0.40;80.40
16134;DHT22;8172;45.018;5.972;2023-02-01T21:45:01;-0.40;80.20
16134;DHT22;8172;45.018;5.972;2023-02-01T21:50:13;-0.30;80.10
16134;DHT22;8172;45.018;5.972;2023-02-01T21:55:20;-0.30;80.10
16134;DHT22;8172;45.018;5.972;2023-02-01T22:00:27;-0.30;80.00
16134;DHT22;8172;45.018;5.972;2023-02-01T22:05:34;-0.30;80.20
16134;DHT22;8172;45.018;5.972;2023-02-01T22:10:41;-0.40;80.40
16134;DHT22;8172;45.018;5.972;2023-02-01T22:15:50;-0.50;80.40
16134;DHT22;8172;45.018;5.972;2023-02-01T22:20:58;-0.50;80.40
16134;DHT22;8172;45.018;5.972;2023-02-01T22:26:07;-0.50;80.40
16134;DHT22;8172;45.018;5.972;2023-02-01T22:31:16;-0.40;80.30
16134;DHT22;8172;45.018;5.972;2023-02-01T22:36:23;-0.40;80.20
16134;DHT22;8172;45.018;5.972;2023-02-01T22:41:30;-0.40;80.10
16134;DHT22;8172;45.018;5.972;2023-02-01T22:46:40;-0.30;80.00
16134;DHT22;8172;45.018;5.972;2023-02-01T22:51:46;-0.30;80.00
16134;DHT22;8172;45.018;5.972;2023-02-01T22:56:55;-0.30;80.00
16134;DHT22;8172;45.018;5.972;2023-02-01T23:02:02;-0.30;79.90
16134;DHT22;8172;45.018;5.972;2023-02-01T23:07:09;-0.30;79.90
16134;DHT22;8172;45.018;5.972;2023-02-01T23:12:16;-0.30;79.80
16134;DHT22;8172;45.018;5.972;2023-02-01T23:17:23;-0.30;79.80
16134;DHT22;8172;45.018;5.972;2023-02-01T23:22:30;-0.30;79.80
16134;DHT22;8172;45.018;5.972;2023-02-01T23:27:38;-0.40;79.80
16134;DHT22;8172;45.018;5.972;2023-02-01T23:32:45;-0.40;79.80
16134;DHT22;8172;45.018;5.972;2023-02-01T23:37:52;-0.40;79.80
16134;DHT22;8172;45.018;5.972;2023-02-01T23:42:59;-0.40;79.80
16134;DHT22;8172;45.018;5.972;2023-02-01T23:48:09;-0.40;79.80
16134;DHT22;8172;45.018;5.972;2023-02-01T23:53:15;-0.40;79.80
16134;DHT22;8172;45.018;5.972;2023-02-01T23:58:23;-0.40;79.70
